Terminal Aerodrome Forecast
Issued by NWS

Home | Current Version | Previous Version | Text Only | Print | Product List | Glossary On
Versions: 1 2 3 4 5 6 7 8 9 10 11 12 13 14 15 16
124
FTUS42 KMHX 141128
TAFPGV
TAF
KPGV 141128Z 1412/1512 04010KT P6SM SCT250
     FM142300 08004KT P6SM SCT040 BKN090
     FM150900 04006KT 5SM -SNPL BKN009
      AMD LTD TO CLD VIS AND WIND=

USA.gov is the U.S. government's official web portal to all federal, state and local government web resources and services.